sensor_id;sensor_type;location;lat;lon;timestamp;pressure;altitude;pressure_sealevel;temperature;humidity
33795;BME280;51430;52.242;21.118;2023-03-23T00:00:22;99667.63;;;9.33;90.04
33795;BME280;51430;52.242;21.118;2023-03-23T00:03:09;99668.22;;;9.32;90.19
33795;BME280;51430;52.242;21.118;2023-03-23T00:05:37;99664.81;;;9.38;90.02
33795;BME280;51430;52.242;21.118;2023-03-23T00:08:04;99664.13;;;9.35;89.97
33795;BME280;51430;52.242;21.118;2023-03-23T00:10:31;99663.55;;;9.34;90.25
33795;BME280;51430;52.242;21.118;2023-03-23T00:13:01;99667.41;;;9.38;90.01
33795;BME280;51430;52.242;21.118;2023-03-23T00:15:28;99663.50;;;9.41;89.93
33795;BME280;51430;52.242;21.118;2023-03-23T00:17:59;99663.42;;;9.39;89.97
33795;BME280;51430;52.242;21.118;2023-03-23T00:20:31;99659.45;;;9.37;90.09
33795;BME280;51430;52.242;21.118;2023-03-23T00:23:07;99655.35;;;9.43;89.89
33795;BME280;51430;52.242;21.118;2023-03-23T00:25:33;99656.48;;;9.39;89.91
33795;BME280;51430;52.242;21.118;2023-03-23T00:28:00;99654.27;;;9.39;90.15
33795;BME280;51430;52.242;21.118;2023-03-23T00:30:27;99654.41;;;9.39;90.00
33795;BME280;51430;52.242;21.118;2023-03-23T00:32:54;99656.57;;;9.41;89.93
33795;BME280;51430;52.242;21.118;2023-03-23T00:35:21;99652.23;;;9.36;89.90
33795;BME280;51430;52.242;21.118;2023-03-23T00:37:48;99655.45;;;9.35;90.08
33795;BME280;51430;52.242;21.118;2023-03-23T00:40:16;99649.36;;;9.27;90.45
33795;BME280;51430;52.242;21.118;2023-03-23T00:42:43;99644.56;;;9.26;90.66
33795;BME280;51430;52.242;21.118;2023-03-23T00:45:10;99647.27;;;9.31;90.40
33795;BME280;51430;52.242;21.118;2023-03-23T00:47:39;99640.73;;;9.26;90.55
33795;BME280;51430;52.242;21.118;2023-03-23T00:50:08;99639.27;;;9.24;90.71
33795;BME280;51430;52.242;21.118;2023-03-23T00:52:36;99639.52;;;9.24;90.69
33795;BME280;51430;52.242;21.118;2023-03-23T00:55:02;99636.83;;;9.27;90.69
33795;BME280;51430;52.242;21.118;2023-03-23T00:57:29;99635.95;;;9.27;90.81
33795;BME280;51430;52.242;21.118;2023-03-23T00:59:56;99632.39;;;9.30;90.57
33795;BME280;51430;52.242;21.118;2023-03-23T01:02:23;99628.61;;;9.21;90.76
33795;BME280;51430;52.242;21.118;2023-03-23T01:04:51;99626.63;;;9.24;90.96
33795;BME280;51430;52.242;21.118;2023-03-23T01:07:20;99625.96;;;9.21;91.04
33795;BME280;51430;52.242;21.118;2023-03-23T01:09:49;99625.27;;;9.26;90.90
33795;BME280;51430;52.242;21.118;2023-03-23T01:12:19;99620.63;;;9.31;90.56
33795;BME280;51430;52.242;21.118;2023-03-23T01:14:46;99623.18;;;9.26;90.69
33795;BME280;51430;52.242;21.118;2023-03-23T01:17:14;99619.00;;;9.21;91.00
33795;BME280;51430;52.242;21.118;2023-03-23T01:19:41;99617.73;;;9.26;90.75
33795;BME280;51430;52.242;21.118;2023-03-23T01:22:08;99615.14;;;9.26;90.87
33795;BME280;51430;52.242;21.118;2023-03-23T01:24:35;99612.80;;;9.31;90.71
33795;BME280;51430;52.242;21.118;2023-03-23T01:27:02;99611.39;;;9.34;90.66
33795;BME280;51430;52.242;21.118;2023-03-23T01:29:36;99612.38;;;9.34;90.59
33795;BME280;51430;52.242;21.118;2023-03-23T01:32:02;99613.49;;;9.33;90.53
33795;BME280;51430;52.242;21.118;2023-03-23T01:34:29;99620.68;;;9.31;90.67
33795;BME280;51430;52.242;21.118;2023-03-23T01:36:56;99621.80;;;9.38;90.55
33795;BME280;51430;52.242;21.118;2023-03-23T01:39:23;99625.59;;;9.43;90.16
33795;BME280;51430;52.242;21.118;2023-03-23T01:41:50;99621.88;;;9.45;90.09
33795;BME280;51430;52.242;21.118;2023-03-23T01:46:44;99617.51;;;9.43;90.03
33795;BME280;51430;52.242;21.118;2023-03-23T01:49:17;99616.60;;;9.44;90.25
33795;BME280;51430;52.242;21.118;2023-03-23T01:51:50;99614.13;;;9.36;90.46
33795;BME280;51430;52.242;21.118;2023-03-23T01:54:20;99614.77;;;9.33;90.57
33795;BME280;51430;52.242;21.118;2023-03-23T01:56:53;99613.47;;;9.34;90.76
33795;BME280;51430;52.242;21.118;2023-03-23T01:59:22;99617.16;;;9.27;90.94
33795;BME280;51430;52.242;21.118;2023-03-23T02:01:53;99615.14;;;9.26;91.17
33795;BME280;51430;52.242;21.118;2023-03-23T02:04:21;99612.08;;;9.21;91.45
33795;BME280;51430;52.242;21.118;2023-03-23T02:06:49;99601.70;;;9.25;91.51
33795;BME280;51430;52.242;21.118;2023-03-23T02:09:17;99599.67;;;9.22;91.42
33795;BME280;51430;52.242;21.118;2023-03-23T02:11:45;99599.57;;;9.23;91.53
33795;BME280;51430;52.242;21.118;2023-03-23T02:14:13;99594.06;;;9.20;91.56
33795;BME280;51430;52.242;21.118;2023-03-23T02:16:47;99591.91;;;9.17;91.83
33795;BME280;51430;52.242;21.118;2023-03-23T02:33:31;99576.16;;;9.14;92.18
33795;BME280;51430;52.242;21.118;2023-03-23T02:36:19;99572.11;;;9.15;92.06
33795;BME280;51430;52.242;21.118;2023-03-23T02:38:53;99573.08;;;9.13;92.03
33795;BME280;51430;52.242;21.118;2023-03-23T02:41:25;99574.01;;;9.15;92.17
33795;BME280;51430;52.242;21.118;2023-03-23T02:43:54;99577.11;;;9.21;91.86
33795;BME280;51430;52.242;21.118;2023-03-23T02:46:22;99577.85;;;9.23;91.71
33795;BME280;51430;52.242;21.118;2023-03-23T02:48:53;99575.65;;;9.18;91.76
33795;BME280;51430;52.242;21.118;2023-03-23T02:51:24;99577.28;;;9.19;91.78
33795;BME280;51430;52.242;21.118;2023-03-23T02:53:55;99569.33;;;9.17;91.78
33795;BME280;51430;52.242;21.118;2023-03-23T02:56:23;99567.93;;;9.15;91.94
33795;BME280;51430;52.242;21.118;2023-03-23T02:58:51;99558.73;;;9.10;92.02
33795;BME280;51430;52.242;21.118;2023-03-23T03:04:26;99569.67;;;9.08;92.30
33795;BME280;51430;52.242;21.118;2023-03-23T03:07:05;99572.40;;;9.17;92.24
33795;BME280;51430;52.242;21.118;2023-03-23T03:09:49;99577.95;;;9.15;92.18
33795;BME280;51430;52.242;21.118;2023-03-23T03:15:01;99575.25;;;9.21;92.15
33795;BME280;51430;52.242;21.118;2023-03-23T03:17:35;99578.92;;;9.27;92.00
33795;BME280;51430;52.242;21.118;2023-03-23T03:20:06;99568.17;;;9.32;91.54
33795;BME280;51430;52.242;21.118;2023-03-23T03:22:39;99567.77;;;9.33;91.48
33795;BME280;51430;52.242;21.118;2023-03-23T03:25:11;99567.76;;;9.27;91.53
33795;BME280;51430;52.242;21.118;2023-03-23T03:27:40;99568.13;;;9.26;91.61
33795;BME280;51430;52.242;21.118;2023-03-23T03:30:09;99571.08;;;9.27;91.54
33795;BME280;51430;52.242;21.118;2023-03-23T03:32:44;99578.52;;;9.30;91.44
33795;BME280;51430;52.242;21.118;2023-03-23T03:35:13;99574.05;;;9.27;91.72
33795;BME280;51430;52.242;21.118;2023-03-23T03:37:41;99574.39;;;9.27;91.69
33795;BME280;51430;52.242;21.118;2023-03-23T03:40:13;99579.66;;;9.28;91.59
33795;BME280;51430;52.242;21.118;2023-03-23T03:42:41;99582.38;;;9.25;91.58
33795;BME280;51430;52.242;21.118;2023-03-23T03:45:19;99586.21;;;9.23;91.61
33795;BME280;51430;52.242;21.118;2023-03-23T03:47:46;99587.48;;;9.16;91.86
33795;BME280;51430;52.242;21.118;2023-03-23T03:50:12;99586.91;;;9.12;92.36
33795;BME280;51430;52.242;21.118;2023-03-23T03:52:39;99590.13;;;9.09;92.18
33795;BME280;51430;52.242;21.118;2023-03-23T03:55:07;99587.86;;;9.01;92.41
33795;BME280;51430;52.242;21.118;2023-03-23T03:57:34;99585.38;;;8.95;92.80
33795;BME280;51430;52.242;21.118;2023-03-23T04:00:02;99577.56;;;8.93;92.92
33795;BME280;51430;52.242;21.118;2023-03-23T04:02:43;99577.54;;;8.85;93.40
33795;BME280;51430;52.242;21.118;2023-03-23T04:05:10;99574.27;;;8.82;93.50
33795;BME280;51430;52.242;21.118;2023-03-23T04:07:38;99565.98;;;8.78;93.85
33795;BME280;51430;52.242;21.118;2023-03-23T04:10:06;99563.05;;;8.79;93.96
33795;BME280;51430;52.242;21.118;2023-03-23T04:12:35;99560.36;;;8.76;93.94
33795;BME280;51430;52.242;21.118;2023-03-23T04:15:03;99557.45;;;8.73;94.13
33795;BME280;51430;52.242;21.118;2023-03-23T04:17:30;99553.45;;;8.69;94.27
33795;BME280;51430;52.242;21.118;2023-03-23T04:19:57;99556.43;;;8.69;94.52
33795;BME280;51430;52.242;21.118;2023-03-23T04:22:26;99557.11;;;8.69;94.50
33795;BME280;51430;52.242;21.118;2023-03-23T04:25:00;99561.19;;;8.72;94.51
33795;BME280;51430;52.242;21.118;2023-03-23T04:27:30;99558.57;;;8.75;94.39
33795;BME280;51430;52.242;21.118;2023-03-23T04:29:57;99556.77;;;8.77;94.30
33795;BME280;51430;52.242;21.118;2023-03-23T04:32:25;99558.39;;;8.77;94.23
33795;BME280;51430;52.242;21.118;2023-03-23T04:34:56;99559.14;;;8.76;94.36
33795;BME280;51430;52.242;21.118;2023-03-23T04:37:24;99555.23;;;8.75;94.31
33795;BME280;51430;52.242;21.118;2023-03-23T04:39:52;99557.08;;;8.76;94.34
33795;BME280;51430;52.242;21.118;2023-03-23T04:42:30;99559.71;;;8.73;94.24
33795;BME280;51430;52.242;21.118;2023-03-23T04:44:57;99560.70;;;8.70;94.46
33795;BME280;51430;52.242;21.118;2023-03-23T04:47:26;99562.25;;;8.68;94.64
33795;BME280;51430;52.242;21.118;2023-03-23T04:49:56;99556.08;;;8.67;94.59
33795;BME280;51430;52.242;21.118;2023-03-23T04:52:27;99557.46;;;8.71;94.43
33795;BME280;51430;52.242;21.118;2023-03-23T04:54:54;99557.36;;;8.66;94.53
33795;BME280;51430;52.242;21.118;2023-03-23T04:57:24;99559.82;;;8.70;94.74
33795;BME280;51430;52.242;21.118;2023-03-23T04:59:54;99558.02;;;8.73;94.56
33795;BME280;51430;52.242;21.118;2023-03-23T05:02:22;99552.86;;;8.78;94.45
33795;BME280;51430;52.242;21.118;2023-03-23T05:04:49;99544.71;;;8.78;94.40
33795;BME280;51430;52.242;21.118;2023-03-23T05:07:17;99544.96;;;8.78;94.58
33795;BME280;51430;52.242;21.118;2023-03-23T05:09:47;99543.63;;;8.83;94.26
33795;BME280;51430;52.242;21.118;2023-03-23T05:12:15;99545.74;;;8.85;94.27
33795;BME280;51430;52.242;21.118;2023-03-23T05:14:42;99547.21;;;8.94;94.04
33795;BME280;51430;52.242;21.118;2023-03-23T05:17:09;99553.30;;;9.00;93.62
33795;BME280;51430;52.242;21.118;2023-03-23T05:19:36;99554.19;;;9.06;93.37
33795;BME280;51430;52.242;21.118;2023-03-23T05:22:04;99553.92;;;9.13;93.26
33795;BME280;51430;52.242;21.118;2023-03-23T05:24:31;99552.25;;;9.17;92.66
33795;BME280;51430;52.242;21.118;2023-03-23T05:26:59;99552.45;;;9.19;92.50
33795;BME280;51430;52.242;21.118;2023-03-23T05:29:26;99555.06;;;9.23;92.45
33795;BME280;51430;52.242;21.118;2023-03-23T05:31:53;99552.99;;;9.33;91.98
33795;BME280;51430;52.242;21.118;2023-03-23T05:34:23;99553.20;;;9.43;91.66
33795;BME280;51430;52.242;21.118;2023-03-23T05:36:52;99551.09;;;9.43;91.29
33795;BME280;51430;52.242;21.118;2023-03-23T05:39:19;99549.89;;;9.41;91.28
33795;BME280;51430;52.242;21.118;2023-03-23T05:41:46;99546.27;;;9.44;91.18
33795;BME280;51430;52.242;21.118;2023-03-23T05:44:13;99553.52;;;9.60;90.66
33795;BME280;51430;52.242;21.118;2023-03-23T05:46:45;99553.86;;;9.52;90.66
33795;BME280;51430;52.242;21.118;2023-03-23T05:49:13;99557.50;;;9.54;90.71
33795;BME280;51430;52.242;21.118;2023-03-23T05:51:43;99561.58;;;9.51;90.79
33795;BME280;51430;52.242;21.118;2023-03-23T05:54:10;99559.05;;;9.56;90.71
33795;BME280;51430;52.242;21.118;2023-03-23T05:56:37;99556.59;;;9.62;90.55
33795;BME280;51430;52.242;21.118;2023-03-23T05:59:04;99564.55;;;9.77;90.22
33795;BME280;51430;52.242;21.118;2023-03-23T06:01:31;99559.10;;;9.86;89.54
33795;BME280;51430;52.242;21.118;2023-03-23T06:03:58;99562.26;;;9.92;89.39
33795;BME280;51430;52.242;21.118;2023-03-23T06:06:26;99568.17;;;9.98;89.06
33795;BME280;51430;52.242;21.118;2023-03-23T06:08:53;99567.48;;;10.10;88.70
33795;BME280;51430;52.242;21.118;2023-03-23T06:11:20;99570.84;;;10.23;88.12
33795;BME280;51430;52.242;21.118;2023-03-23T06:13:47;99570.59;;;10.42;87.72
33795;BME280;51430;52.242;21.118;2023-03-23T06:16:14;99567.45;;;10.61;86.91
33795;BME280;51430;52.242;21.118;2023-03-23T06:18:42;99570.28;;;10.65;86.41
33795;BME280;51430;52.242;21.118;2023-03-23T06:21:10;99572.80;;;10.72;86.26
33795;BME280;51430;52.242;21.118;2023-03-23T06:23:38;99570.23;;;10.79;86.03
33795;BME280;51430;52.242;21.118;2023-03-23T06:26:08;99568.66;;;10.87;85.89
33795;BME280;51430;52.242;21.118;2023-03-23T06:28:36;99566.56;;;10.96;85.56
33795;BME280;51430;52.242;21.118;2023-03-23T06:31:05;99565.71;;;11.09;85.10
33795;BME280;51430;52.242;21.118;2023-03-23T06:33:34;99564.39;;;11.14;84.78
33795;BME280;51430;52.242;21.118;2023-03-23T06:36:01;99564.46;;;11.23;84.67
33795;BME280;51430;52.242;21.118;2023-03-23T06:38:28;99568.73;;;11.33;84.16
33795;BME280;51430;52.242;21.118;2023-03-23T06:40:56;99574.34;;;11.50;83.89
33795;BME280;51430;52.242;21.118;2023-03-23T06:43:23;99578.45;;;11.72;83.13
33795;BME280;51430;52.242;21.118;2023-03-23T06:45:50;99583.59;;;12.04;82.49
33795;BME280;51430;52.242;21.118;2023-03-23T06:48:17;99586.98;;;12.44;80.72
33795;BME280;51430;52.242;21.118;2023-03-23T06:50:46;99586.44;;;12.69;78.94
33795;BME280;51430;52.242;21.118;2023-03-23T06:53:13;99581.98;;;12.89;78.18
33795;BME280;51430;52.242;21.118;2023-03-23T06:55:42;99581.39;;;12.74;78.02
33795;BME280;51430;52.242;21.118;2023-03-23T06:58:10;99577.46;;;12.84;77.83
33795;BME280;51430;52.242;21.118;2023-03-23T07:00:36;99572.16;;;12.88;77.37
33795;BME280;51430;52.242;21.118;2023-03-23T07:03:03;99573.41;;;12.91;77.15
33795;BME280;51430;52.242;21.118;2023-03-23T07:05:32;99572.61;;;12.90;77.30
33795;BME280;51430;52.242;21.118;2023-03-23T07:08:04;99576.50;;;13.27;76.48
33795;BME280;51430;52.242;21.118;2023-03-23T07:10:31;99582.02;;;13.66;74.54
33795;BME280;51430;52.242;21.118;2023-03-23T07:12:59;99585.00;;;14.02;73.00
33795;BME280;51430;52.242;21.118;2023-03-23T07:15:28;99589.31;;;14.29;72.14
33795;BME280;51430;52.242;21.118;2023-03-23T07:17:55;99587.74;;;14.43;71.62
33795;BME280;51430;52.242;21.118;2023-03-23T07:20:22;99586.17;;;14.24;71.03
33795;BME280;51430;52.242;21.118;2023-03-23T07:22:49;99585.94;;;14.26;71.23
33795;BME280;51430;52.242;21.118;2023-03-23T07:25:17;99583.63;;;15.07;69.19
33795;BME280;51430;52.242;21.118;2023-03-23T07:27:45;99589.50;;;15.72;66.89
33795;BME280;51430;52.242;21.118;2023-03-23T07:30:13;99591.19;;;16.26;64.89
33795;BME280;51430;52.242;21.118;2023-03-23T07:32:41;99593.07;;;16.51;63.93
33795;BME280;51430;52.242;21.118;2023-03-23T07:35:08;99596.90;;;16.76;63.17
33795;BME280;51430;52.242;21.118;2023-03-23T07:37:36;99600.09;;;16.48;63.03
33795;BME280;51430;52.242;21.118;2023-03-23T07:40:04;99602.30;;;16.54;63.59
33795;BME280;51430;52.242;21.118;2023-03-23T07:42:44;99599.48;;;16.55;63.00
33795;BME280;51430;52.242;21.118;2023-03-23T07:45:12;99597.83;;;16.69;62.86
33795;BME280;51430;52.242;21.118;2023-03-23T07:47:40;99600.55;;;16.61;62.59
33795;BME280;51430;52.242;21.118;2023-03-23T07:50:07;99597.84;;;16.92;62.41
33795;BME280;51430;52.242;21.118;2023-03-23T07:52:35;99604.26;;;17.31;61.22
33795;BME280;51430;52.242;21.118;2023-03-23T07:55:09;99603.23;;;17.55;58.05
33795;BME280;51430;52.242;21.118;2023-03-23T07:57:38;99601.98;;;17.63;56.56
33795;BME280;51430;52.242;21.118;2023-03-23T08:00:05;99600.34;;;17.55;56.49
33795;BME280;51430;52.242;21.118;2023-03-23T08:02:42;99601.35;;;17.81;55.80
33795;BME280;51430;52.242;21.118;2023-03-23T08:05:09;99600.42;;;18.28;53.75
33795;BME280;51430;52.242;21.118;2023-03-23T08:07:36;99600.23;;;17.93;54.21
33795;BME280;51430;52.242;21.118;2023-03-23T08:10:03;99593.07;;;17.42;55.17
33795;BME280;51430;52.242;21.118;2023-03-23T08:12:30;99589.05;;;17.27;55.55
33795;BME280;51430;52.242;21.118;2023-03-23T08:14:57;99586.23;;;17.15;55.83
33795;BME280;51430;52.242;21.118;2023-03-23T08:20:24;99582.98;;;16.94;56.66
33795;BME280;51430;52.242;21.118;2023-03-23T08:22:54;99581.08;;;17.10;56.36
33795;BME280;51430;52.242;21.118;2023-03-23T08:25:23;99575.16;;;16.98;56.57
33795;BME280;51430;52.242;21.118;2023-03-23T08:27:54;99574.63;;;17.45;55.55
33795;BME280;51430;52.242;21.118;2023-03-23T08:30:21;99572.27;;;17.82;54.37
33795;BME280;51430;52.242;21.118;2023-03-23T08:32:54;99569.61;;;18.20;53.59
33795;BME280;51430;52.242;21.118;2023-03-23T08:35:22;99567.13;;;18.10;52.91
33795;BME280;51430;52.242;21.118;2023-03-23T08:37:49;99564.09;;;18.25;52.33
33795;BME280;51430;52.242;21.118;2023-03-23T08:40:22;99558.74;;;18.34;52.02
33795;BME280;51430;52.242;21.118;2023-03-23T08:42:53;99549.77;;;18.52;51.82
33795;BME280;51430;52.242;21.118;2023-03-23T08:45:23;99550.62;;;18.39;51.81
33795;BME280;51430;52.242;21.118;2023-03-23T08:47:51;99557.52;;;18.12;51.86
33795;BME280;51430;52.242;21.118;2023-03-23T08:50:22;99549.80;;;18.02;51.81
33795;BME280;51430;52.242;21.118;2023-03-23T08:52:54;99550.91;;;17.69;52.88
33795;BME280;51430;52.242;21.118;2023-03-23T08:55:22;99560.06;;;17.69;53.00
33795;BME280;51430;52.242;21.118;2023-03-23T08:57:50;99555.88;;;17.81;53.20
33795;BME280;51430;52.242;21.118;2023-03-23T09:00:20;99566.84;;;18.03;51.82
33795;BME280;51430;52.242;21.118;2023-03-23T09:03:20;99564.77;;;18.09;52.30
33795;BME280;51430;52.242;21.118;2023-03-23T09:05:48;99569.38;;;18.16;52.75
33795;BME280;51430;52.242;21.118;2023-03-23T09:08:19;99565.92;;;18.47;51.91
33795;BME280;51430;52.242;21.118;2023-03-23T09:10:49;99569.61;;;18.44;51.57
33795;BME280;51430;52.242;21.118;2023-03-23T09:13:18;99569.07;;;17.91;52.41
33795;BME280;51430;52.242;21.118;2023-03-23T09:15:49;99567.05;;;17.82;52.61
33795;BME280;51430;52.242;21.118;2023-03-23T09:18:18;99570.77;;;17.80;52.90
33795;BME280;51430;52.242;21.118;2023-03-23T09:20:50;99569.63;;;17.66;53.05
33795;BME280;51430;52.242;21.118;2023-03-23T09:23:19;99569.17;;;17.54;53.15
33795;BME280;51430;52.242;21.118;2023-03-23T09:25:56;99568.38;;;17.45;52.99
33795;BME280;51430;52.242;21.118;2023-03-23T09:28:25;99569.75;;;17.29;52.78
33795;BME280;51430;52.242;21.118;2023-03-23T09:30:55;99566.55;;;17.35;52.57
33795;BME280;51430;52.242;21.118;2023-03-23T09:33:24;99564.41;;;17.38;52.43
33795;BME280;51430;52.242;21.118;2023-03-23T09:35:52;99567.58;;;17.31;52.50
33795;BME280;51430;52.242;21.118;2023-03-23T09:38:19;99561.20;;;17.51;51.99
33795;BME280;51430;52.242;21.118;2023-03-23T09:40:53;99557.36;;;17.71;51.61
33795;BME280;51430;52.242;21.118;2023-03-23T09:43:43;99558.97;;;17.93;51.21
33795;BME280;51430;52.242;21.118;2023-03-23T09:48:54;99550.02;;;18.03;50.49
33795;BME280;51430;52.242;21.118;2023-03-23T09:51:49;99540.36;;;17.98;50.84
33795;BME280;51430;52.242;21.118;2023-03-23T09:57:12;99535.41;;;17.94;50.63
33795;BME280;51430;52.242;21.118;2023-03-23T09:59:56;99532.92;;;18.12;50.48
33795;BME280;51430;52.242;21.118;2023-03-23T10:05:27;99525.03;;;18.47;49.62
33795;BME280;51430;52.242;21.118;2023-03-23T10:07:56;99526.61;;;18.80;49.12
33795;BME280;51430;52.242;21.118;2023-03-23T10:10:30;99529.05;;;19.20;47.89
33795;BME280;51430;52.242;21.118;2023-03-23T10:13:09;99531.23;;;19.18;47.42
33795;BME280;51430;52.242;21.118;2023-03-23T10:15:40;99526.53;;;19.29;46.94
33795;BME280;51430;52.242;21.118;2023-03-23T10:18:15;99524.52;;;20.04;45.96
33795;BME280;51430;52.242;21.118;2023-03-23T10:20:55;99526.45;;;21.61;42.39
33795;BME280;51430;52.242;21.118;2023-03-23T10:23:46;99515.14;;;22.88;40.23
33795;BME280;51430;52.242;21.118;2023-03-23T10:26:56;99518.86;;;23.24;38.69
33795;BME280;51430;52.242;21.118;2023-03-23T10:29:39;99513.96;;;23.62;37.78
33795;BME280;51430;52.242;21.118;2023-03-23T10:32:13;99515.23;;;23.56;37.17
33795;BME280;51430;52.242;21.118;2023-03-23T10:34:59;99508.34;;;23.20;37.54
33795;BME280;51430;52.242;21.118;2023-03-23T10:37:38;99504.83;;;23.57;37.28
33795;BME280;51430;52.242;21.118;2023-03-23T10:40:18;99508.91;;;23.78;36.77
33795;BME280;51430;52.242;21.118;2023-03-23T10:42:48;99502.56;;;24.20;36.29
33795;BME280;51430;52.242;21.118;2023-03-23T10:45:25;99503.48;;;24.10;35.94
33795;BME280;51430;52.242;21.118;2023-03-23T10:48:00;99501.40;;;23.53;37.49
33795;BME280;51430;52.242;21.118;2023-03-23T10:50:35;99501.45;;;24.02;36.71
33795;BME280;51430;52.242;21.118;2023-03-23T10:53:32;99503.11;;;23.36;37.09
33795;BME280;51430;52.242;21.118;2023-03-23T10:56:01;99503.25;;;22.57;38.48
33795;BME280;51430;52.242;21.118;2023-03-23T10:58:33;99502.24;;;22.38;38.60
33795;BME280;51430;52.242;21.118;2023-03-23T11:01:04;99503.31;;;22.62;38.53
33795;BME280;51430;52.242;21.118;2023-03-23T11:03:40;99496.14;;;24.14;36.54
33795;BME280;51430;52.242;21.118;2023-03-23T11:06:11;99500.66;;;24.58;35.41
33795;BME280;51430;52.242;21.118;2023-03-23T11:08:51;99501.23;;;24.04;36.26
33795;BME280;51430;52.242;21.118;2023-03-23T11:11:26;99498.80;;;24.13;35.93
33795;BME280;51430;52.242;21.118;2023-03-23T11:14:02;99490.75;;;23.67;36.19
33795;BME280;51430;52.242;21.118;2023-03-23T11:16:43;99498.05;;;23.77;34.81
33795;BME280;51430;52.242;21.118;2023-03-23T11:19:13;99499.20;;;23.80;34.41
33795;BME280;51430;52.242;21.118;2023-03-23T11:22:07;99486.67;;;24.25;33.78
33795;BME280;51430;52.242;21.118;2023-03-23T11:24:46;99487.73;;;23.55;34.41
33795;BME280;51430;52.242;21.118;2023-03-23T11:27:15;99480.40;;;23.28;34.94
33795;BME280;51430;52.242;21.118;2023-03-23T11:29:55;99481.40;;;23.52;34.93
33795;BME280;51430;52.242;21.118;2023-03-23T11:32:27;99472.91;;;23.15;35.50
33795;BME280;51430;52.242;21.118;2023-03-23T11:34:58;99472.84;;;23.55;34.90
33795;BME280;51430;52.242;21.118;2023-03-23T11:37:32;99470.23;;;23.33;35.24
33795;BME280;51430;52.242;21.118;2023-03-23T11:40:14;99463.89;;;24.41;33.80
33795;BME280;51430;52.242;21.118;2023-03-23T11:43:07;99458.67;;;24.90;33.34
33795;BME280;51430;52.242;21.118;2023-03-23T11:45:46;99460.81;;;24.50;33.47
33795;BME280;51430;52.242;21.118;2023-03-23T11:51:58;99439.91;;;26.50;31.51
33795;BME280;51430;52.242;21.118;2023-03-23T11:54:36;99444.41;;;26.20;31.15
33795;BME280;51430;52.242;21.118;2023-03-23T11:57:09;99438.14;;;25.94;31.29
33795;BME280;51430;52.242;21.118;2023-03-23T11:59:40;99436.41;;;25.77;31.90
33795;BME280;51430;52.242;21.118;2023-03-23T12:05:27;99426.47;;;26.58;30.15
33795;BME280;51430;52.242;21.118;2023-03-23T12:08:14;99422.70;;;26.94;30.29
33795;BME280;51430;52.242;21.118;2023-03-23T12:31:22;99398.92;;;21.90;38.44
33795;BME280;51430;52.242;21.118;2023-03-23T12:34:47;99383.30;;;22.51;38.05
33795;BME280;51430;52.242;21.118;2023-03-23T12:48:57;99379.51;;;23.02;36.53
33795;BME280;51430;52.242;21.118;2023-03-23T12:52:06;99388.91;;;22.74;37.17
33795;BME280;51430;52.242;21.118;2023-03-23T12:57:47;99390.80;;;21.27;39.58
33795;BME280;51430;52.242;21.118;2023-03-23T13:00:23;99382.80;;;21.20;40.07
33795;BME280;51430;52.242;21.118;2023-03-23T13:03:03;99383.06;;;21.32;40.10
33795;BME280;51430;52.242;21.118;2023-03-23T13:05:39;99382.25;;;21.24;40.47
33795;BME280;51430;52.242;21.118;2023-03-23T13:08:18;99379.38;;;21.12;40.49
33795;BME280;51430;52.242;21.118;2023-03-23T13:13:47;99376.83;;;21.20;40.92
33795;BME280;51430;52.242;21.118;2023-03-23T13:16:29;99379.98;;;20.86;41.30
33795;BME280;51430;52.242;21.118;2023-03-23T13:19:06;99370.23;;;20.68;41.50
33795;BME280;51430;52.242;21.118;2023-03-23T13:21:50;99378.81;;;20.59;41.32
33795;BME280;51430;52.242;21.118;2023-03-23T13:24:26;99372.19;;;20.53;41.36
33795;BME280;51430;52.242;21.118;2023-03-23T13:29:45;99369.20;;;20.28;41.48
33795;BME280;51430;52.242;21.118;2023-03-23T13:32:17;99367.23;;;20.16;42.02
33795;BME280;51430;52.242;21.118;2023-03-23T13:34:47;99370.29;;;20.11;42.27
33795;BME280;51430;52.242;21.118;2023-03-23T13:40:28;99363.66;;;20.10;42.43
33795;BME280;51430;52.242;21.118;2023-03-23T13:43:01;99371.75;;;20.02;42.67
33795;BME280;51430;52.242;21.118;2023-03-23T13:50:57;99365.95;;;20.08;42.93
33795;BME280;51430;52.242;21.118;2023-03-23T13:53:28;99364.34;;;19.99;43.14
33795;BME280;51430;52.242;21.118;2023-03-23T13:56:52;99368.94;;;20.03;43.05
33795;BME280;51430;52.242;21.118;2023-03-23T13:59:07;99357.29;;;20.10;43.08
33795;BME280;51430;52.242;21.118;2023-03-23T14:01:39;99361.11;;;20.26;42.85
33795;BME280;51430;52.242;21.118;2023-03-23T14:04:17;99363.74;;;20.16;42.78
33795;BME280;51430;52.242;21.118;2023-03-23T14:06:51;99370.05;;;20.20;43.04
33795;BME280;51430;52.242;21.118;2023-03-23T14:09:28;99374.29;;;20.30;43.00
33795;BME280;51430;52.242;21.118;2023-03-23T14:12:01;99378.78;;;20.34;42.51
33795;BME280;51430;52.242;21.118;2023-03-23T14:14:45;99378.57;;;20.16;42.92
33795;BME280;51430;52.242;21.118;2023-03-23T14:17:14;99381.61;;;20.04;43.43
33795;BME280;51430;52.242;21.118;2023-03-23T14:19:57;99388.73;;;20.08;43.45
33795;BME280;51430;52.242;21.118;2023-03-23T14:22:33;99396.47;;;19.99;43.78
33795;BME280;51430;52.242;21.118;2023-03-23T14:25:21;99393.08;;;19.91;44.19
33795;BME280;51430;52.242;21.118;2023-03-23T14:27:54;99396.61;;;19.74;44.85
33795;BME280;51430;52.242;21.118;2023-03-23T14:30:35;99399.97;;;19.63;45.46
33795;BME280;51430;52.242;21.118;2023-03-23T14:33:06;99403.96;;;19.55;45.94
33795;BME280;51430;52.242;21.118;2023-03-23T14:36:29;99405.46;;;19.47;46.51
33795;BME280;51430;52.242;21.118;2023-03-23T14:39:04;99410.19;;;19.23;47.12
33795;BME280;51430;52.242;21.118;2023-03-23T14:41:33;99409.58;;;19.11;47.74
33795;BME280;51430;52.242;21.118;2023-03-23T14:44:40;99412.51;;;19.06;48.27
33795;BME280;51430;52.242;21.118;2023-03-23T14:47:31;99420.04;;;18.95;48.49
33795;BME280;51430;52.242;21.118;2023-03-23T14:50:00;99425.08;;;18.94;48.65